Terminal Aerodrome Forecast
Issued by NWS Paducah, KY

Current Version | Previous Version | Text Only | Print | Product List | Glossary On
Versions: 1 2 3 4 5 6 7 8 9 10 11 12 13
352
FTUS43 KPAH 222320
TAFEVV
TAF
KEVV 222320Z 2300/2324 00000KT P6SM SCT250
     FM231500 21006KT P6SM SCT100=

USA.gov is the U.S. government's official web portal to all federal, state and local government web resources and services.